sensor_id;sensor_type;location;lat;lon;timestamp;pressure;altitude;pressure_sealevel;temperature;humidity
23616;BME280;11985;49.404;7.734;2022-07-10T00:01:03;98077.31;;;14.36;74.25
23616;BME280;11985;49.404;7.734;2022-07-10T00:03:28;98074.06;;;14.34;74.58
23616;BME280;11985;49.404;7.734;2022-07-10T00:05:53;98083.44;;;14.30;74.82
23616;BME280;11985;49.404;7.734;2022-07-10T00:08:19;98089.16;;;14.26;74.71
23616;BME280;11985;49.404;7.734;2022-07-10T00:10:44;98080.19;;;14.21;74.71
23616;BME280;11985;49.404;7.734;2022-07-10T00:13:09;98081.03;;;14.15;74.78
23616;BME280;11985;49.404;7.734;2022-07-10T00:15:35;98083.50;;;14.10;74.74
23616;BME280;11985;49.404;7.734;2022-07-10T00:18:00;98081.06;;;14.08;74.95
23616;BME280;11985;49.404;7.734;2022-07-10T00:20:26;98080.28;;;14.01;75.03
23616;BME280;11985;49.404;7.734;2022-07-10T00:22:51;98079.06;;;13.97;75.04
23616;BME280;11985;49.404;7.734;2022-07-10T00:25:16;98087.63;;;13.92;74.92
23616;BME280;11985;49.404;7.734;2022-07-10T00:27:42;98082.75;;;13.89;75.21
23616;BME280;11985;49.404;7.734;2022-07-10T00:30:09;98080.09;;;13.89;75.23
23616;BME280;11985;49.404;7.734;2022-07-10T00:32:35;98079.88;;;13.91;75.21
23616;BME280;11985;49.404;7.734;2022-07-10T00:35:00;98092.09;;;13.92;75.17
23616;BME280;11985;49.404;7.734;2022-07-10T00:37:27;98086.41;;;13.95;75.00
23616;BME280;11985;49.404;7.734;2022-07-10T00:39:52;98084.56;;;13.95;74.89
23616;BME280;11985;49.404;7.734;2022-07-10T00:42:18;98081.72;;;13.90;74.91
23616;BME280;11985;49.404;7.734;2022-07-10T00:44:43;98087.63;;;13.86;74.85
23616;BME280;11985;49.404;7.734;2022-07-10T00:47:10;98083.38;;;13.85;74.86
23616;BME280;11985;49.404;7.734;2022-07-10T00:49:37;98088.66;;;13.85;74.91
23616;BME280;11985;49.404;7.734;2022-07-10T00:52:06;98083.75;;;13.82;74.78
23616;BME280;11985;49.404;7.734;2022-07-10T00:54:32;98083.75;;;13.82;75.00
23616;BME280;11985;49.404;7.734;2022-07-10T00:56:59;98087.03;;;13.84;74.91
23616;BME280;11985;49.404;7.734;2022-07-10T00:59:25;98086.00;;;13.85;74.73
23616;BME280;11985;49.404;7.734;2022-07-10T01:01:51;98086.22;;;13.83;74.82
23616;BME280;11985;49.404;7.734;2022-07-10T01:04:17;98092.94;;;13.79;74.72
23616;BME280;11985;49.404;7.734;2022-07-10T01:06:44;98087.22;;;13.76;74.91
23616;BME280;11985;49.404;7.734;2022-07-10T01:09:10;98082.38;;;13.72;74.92
23616;BME280;11985;49.404;7.734;2022-07-10T01:11:37;98083.00;;;13.61;74.90
23616;BME280;11985;49.404;7.734;2022-07-10T01:14:02;98087.88;;;13.58;75.23
23616;BME280;11985;49.404;7.734;2022-07-10T01:16:28;98094.19;;;13.50;75.10
23616;BME280;11985;49.404;7.734;2022-07-10T01:18:55;98080.75;;;13.45;75.48
23616;BME280;11985;49.404;7.734;2022-07-10T01:21:38;98085.22;;;13.31;75.48
23616;BME280;11985;49.404;7.734;2022-07-10T01:24:06;98080.34;;;13.28;75.57
23616;BME280;11985;49.404;7.734;2022-07-10T01:26:32;98085.19;;;13.11;75.74
23616;BME280;11985;49.404;7.734;2022-07-10T01:28:58;98084.34;;;13.04;75.84
23616;BME280;11985;49.404;7.734;2022-07-10T01:31:27;98086.16;;;13.04;76.23
23616;BME280;11985;49.404;7.734;2022-07-10T01:33:53;98083.94;;;13.07;76.40
23616;BME280;11985;49.404;7.734;2022-07-10T01:36:20;98086.81;;;13.06;76.61
23616;BME280;11985;49.404;7.734;2022-07-10T01:38:46;98090.88;;;13.08;76.58
23616;BME280;11985;49.404;7.734;2022-07-10T01:41:12;98090.47;;;13.11;76.76
23616;BME280;11985;49.404;7.734;2022-07-10T01:43:37;98099.00;;;13.13;76.79
23616;BME280;11985;49.404;7.734;2022-07-10T01:46:07;98100.25;;;13.17;76.85
23616;BME280;11985;49.404;7.734;2022-07-10T01:48:33;98101.88;;;13.18;76.85
23616;BME280;11985;49.404;7.734;2022-07-10T01:50:58;98104.91;;;13.15;76.75
23616;BME280;11985;49.404;7.734;2022-07-10T01:53:24;98097.38;;;13.12;76.96
23616;BME280;11985;49.404;7.734;2022-07-10T01:55:49;98103.88;;;13.10;77.01
23616;BME280;11985;49.404;7.734;2022-07-10T01:58:15;98101.84;;;13.05;76.99
23616;BME280;11985;49.404;7.734;2022-07-10T02:00:40;98104.69;;;12.97;77.08
23616;BME280;11985;49.404;7.734;2022-07-10T02:03:05;98107.09;;;12.92;77.16
23616;BME280;11985;49.404;7.734;2022-07-10T02:05:49;98105.69;;;12.83;77.36
23616;BME280;11985;49.404;7.734;2022-07-10T02:08:15;98103.41;;;12.80;77.39
23616;BME280;11985;49.404;7.734;2022-07-10T02:10:40;98108.28;;;12.76;77.52
23616;BME280;11985;49.404;7.734;2022-07-10T02:13:05;98109.72;;;12.72;77.67
23616;BME280;11985;49.404;7.734;2022-07-10T02:15:31;98108.25;;;12.69;77.74
23616;BME280;11985;49.404;7.734;2022-07-10T02:17:56;98115.38;;;12.69;77.89
23616;BME280;11985;49.404;7.734;2022-07-10T02:20:21;98116.41;;;12.68;77.99
23616;BME280;11985;49.404;7.734;2022-07-10T02:22:47;98114.34;;;12.63;78.10
23616;BME280;11985;49.404;7.734;2022-07-10T02:25:12;98116.75;;;12.58;78.05
23616;BME280;11985;49.404;7.734;2022-07-10T02:27:37;98119.16;;;12.53;78.23
23616;BME280;11985;49.404;7.734;2022-07-10T02:30:04;98105.72;;;12.48;78.27
23616;BME280;11985;49.404;7.734;2022-07-10T02:32:30;98102.06;;;12.49;78.33
23616;BME280;11985;49.404;7.734;2022-07-10T02:34:55;98104.09;;;12.47;78.33
23616;BME280;11985;49.404;7.734;2022-07-10T02:37:20;98105.34;;;12.45;78.48
23616;BME280;11985;49.404;7.734;2022-07-10T02:39:46;98096.97;;;12.41;78.51
23616;BME280;11985;49.404;7.734;2022-07-10T02:42:11;98096.38;;;12.39;78.66
23616;BME280;11985;49.404;7.734;2022-07-10T02:44:36;98100.41;;;12.35;78.77
23616;BME280;11985;49.404;7.734;2022-07-10T02:47:02;98096.72;;;12.29;78.83
23616;BME280;11985;49.404;7.734;2022-07-10T02:49:27;98101.09;;;12.15;78.86
23616;BME280;11985;49.404;7.734;2022-07-10T02:51:53;98098.63;;;12.07;79.02
23616;BME280;11985;49.404;7.734;2022-07-10T02:54:18;98102.50;;;12.05;79.23
23616;BME280;11985;49.404;7.734;2022-07-10T02:56:44;98099.00;;;12.04;79.38
23616;BME280;11985;49.404;7.734;2022-07-10T02:59:09;98092.13;;;12.10;79.32
23616;BME280;11985;49.404;7.734;2022-07-10T03:01:34;98095.22;;;12.13;79.22
23616;BME280;11985;49.404;7.734;2022-07-10T03:04:00;98091.41;;;12.23;79.05
23616;BME280;11985;49.404;7.734;2022-07-10T03:06:26;98095.28;;;12.27;78.93
23616;BME280;11985;49.404;7.734;2022-07-10T03:08:52;98097.91;;;12.27;78.73
23616;BME280;11985;49.404;7.734;2022-07-10T03:11:19;98097.31;;;12.25;78.79
23616;BME280;11985;49.404;7.734;2022-07-10T03:13:44;98097.31;;;12.25;78.78
23616;BME280;11985;49.404;7.734;2022-07-10T03:16:09;98101.97;;;12.23;78.80
23616;BME280;11985;49.404;7.734;2022-07-10T03:18:35;98104.78;;;12.21;78.84
23616;BME280;11985;49.404;7.734;2022-07-10T03:21:00;98109.88;;;12.16;78.97
23616;BME280;11985;49.404;7.734;2022-07-10T03:23:26;98107.16;;;12.09;78.92
23616;BME280;11985;49.404;7.734;2022-07-10T03:25:51;98111.22;;;12.05;79.04
23616;BME280;11985;49.404;7.734;2022-07-10T03:28:16;98117.47;;;11.98;78.98
23616;BME280;11985;49.404;7.734;2022-07-10T03:30:42;98117.22;;;11.93;79.28
23616;BME280;11985;49.404;7.734;2022-07-10T03:33:07;98111.69;;;11.87;79.39
23616;BME280;11985;49.404;7.734;2022-07-10T03:35:33;98112.31;;;11.83;79.45
23616;BME280;11985;49.404;7.734;2022-07-10T03:37:58;98111.47;;;11.82;79.57
23616;BME280;11985;49.404;7.734;2022-07-10T03:40:23;98113.84;;;11.77;79.70
23616;BME280;11985;49.404;7.734;2022-07-10T03:42:49;98119.50;;;11.74;79.93
23616;BME280;11985;49.404;7.734;2022-07-10T03:45:14;98116.63;;;11.69;80.04
23616;BME280;11985;49.404;7.734;2022-07-10T03:47:40;98111.31;;;11.62;79.99
23616;BME280;11985;49.404;7.734;2022-07-10T03:50:05;98113.34;;;11.60;80.02
23616;BME280;11985;49.404;7.734;2022-07-10T03:52:31;98114.31;;;11.59;80.02
23616;BME280;11985;49.404;7.734;2022-07-10T03:54:56;98108.06;;;11.60;80.04
23616;BME280;11985;49.404;7.734;2022-07-10T03:57:22;98113.69;;;11.57;80.22
23616;BME280;11985;49.404;7.734;2022-07-10T04:00:07;98116.41;;;11.43;80.04
23616;BME280;11985;49.404;7.734;2022-07-10T04:02:33;98123.91;;;11.39;80.15
23616;BME280;11985;49.404;7.734;2022-07-10T04:04:58;98127.91;;;11.35;80.20
23616;BME280;11985;49.404;7.734;2022-07-10T04:07:24;98130.31;;;11.30;80.21
23616;BME280;11985;49.404;7.734;2022-07-10T04:09:49;98119.94;;;11.28;80.32
23616;BME280;11985;49.404;7.734;2022-07-10T04:12:14;98116.31;;;11.29;80.39
23616;BME280;11985;49.404;7.734;2022-07-10T04:14:40;98126.41;;;11.26;80.52
23616;BME280;11985;49.404;7.734;2022-07-10T04:17:05;98123.16;;;11.24;80.56
23616;BME280;11985;49.404;7.734;2022-07-10T04:19:30;98123.34;;;11.22;80.68
23616;BME280;11985;49.404;7.734;2022-07-10T04:21:56;98124.53;;;11.20;80.64
23616;BME280;11985;49.404;7.734;2022-07-10T04:24:21;98125.53;;;11.19;80.72
23616;BME280;11985;49.404;7.734;2022-07-10T04:26:46;98120.00;;;11.14;80.79
23616;BME280;11985;49.404;7.734;2022-07-10T04:29:12;98126.66;;;11.09;80.76
23616;BME280;11985;49.404;7.734;2022-07-10T04:31:37;98136.44;;;11.16;80.68
23616;BME280;11985;49.404;7.734;2022-07-10T04:34:03;98123.16;;;11.24;80.70
23616;BME280;11985;49.404;7.734;2022-07-10T04:36:28;98125.22;;;11.28;80.51
23616;BME280;11985;49.404;7.734;2022-07-10T04:38:55;98119.19;;;11.34;80.29
23616;BME280;11985;49.404;7.734;2022-07-10T04:41:20;98118.13;;;11.50;80.23
23616;BME280;11985;49.404;7.734;2022-07-10T04:43:46;98112.81;;;11.72;80.03
23616;BME280;11985;49.404;7.734;2022-07-10T04:46:11;98114.16;;;11.89;79.53
23616;BME280;11985;49.404;7.734;2022-07-10T04:48:36;98123.00;;;12.09;79.18
23616;BME280;11985;49.404;7.734;2022-07-10T04:51:02;98118.63;;;12.23;78.78
23616;BME280;11985;49.404;7.734;2022-07-10T04:53:28;98126.00;;;12.34;78.36
23616;BME280;11985;49.404;7.734;2022-07-10T04:55:54;98127.28;;;12.45;77.90
23616;BME280;11985;49.404;7.734;2022-07-10T04:58:19;98123.66;;;12.53;77.51
23616;BME280;11985;49.404;7.734;2022-07-10T05:00:44;98126.94;;;12.61;77.28
23616;BME280;11985;49.404;7.734;2022-07-10T05:03:10;98133.03;;;12.62;77.10
23616;BME280;11985;49.404;7.734;2022-07-10T05:05:35;98135.47;;;12.63;76.85
23616;BME280;11985;49.404;7.734;2022-07-10T05:08:00;98134.69;;;12.69;76.61
23616;BME280;11985;49.404;7.734;2022-07-10T05:10:26;98135.50;;;12.77;76.32
23616;BME280;11985;49.404;7.734;2022-07-10T05:12:52;98141.25;;;12.87;75.86
23616;BME280;11985;49.404;7.734;2022-07-10T05:15:19;98136.41;;;13.04;75.66
23616;BME280;11985;49.404;7.734;2022-07-10T05:17:44;98140.13;;;13.16;75.27
23616;BME280;11985;49.404;7.734;2022-07-10T05:20:10;98145.03;;;13.26;74.84
23616;BME280;11985;49.404;7.734;2022-07-10T05:22:35;98143.03;;;13.41;74.76
23616;BME280;11985;49.404;7.734;2022-07-10T05:25:01;98144.69;;;13.55;74.11
23616;BME280;11985;49.404;7.734;2022-07-10T05:27:26;98143.25;;;13.72;73.63
23616;BME280;11985;49.404;7.734;2022-07-10T05:29:52;98140.59;;;13.86;72.90
23616;BME280;11985;49.404;7.734;2022-07-10T05:32:17;98139.78;;;13.92;72.37
23616;BME280;11985;49.404;7.734;2022-07-10T05:34:43;98143.84;;;14.01;72.25
23616;BME280;11985;49.404;7.734;2022-07-10T05:37:08;98141.41;;;13.99;71.77
23616;BME280;11985;49.404;7.734;2022-07-10T05:39:34;98155.66;;;14.12;71.48
23616;BME280;11985;49.404;7.734;2022-07-10T05:41:59;98155.19;;;14.35;71.11
23616;BME280;11985;49.404;7.734;2022-07-10T05:44:25;98158.06;;;14.33;70.25
23616;BME280;11985;49.404;7.734;2022-07-10T05:46:50;98165.34;;;14.38;69.84
23616;BME280;11985;49.404;7.734;2022-07-10T05:49:17;98166.78;;;14.53;69.57
23616;BME280;11985;49.404;7.734;2022-07-10T05:51:42;98168.63;;;14.40;69.05
23616;BME280;11985;49.404;7.734;2022-07-10T05:54:08;98162.97;;;14.23;69.10
23616;BME280;11985;49.404;7.734;2022-07-10T05:56:33;98163.19;;;14.08;68.83
23616;BME280;11985;49.404;7.734;2022-07-10T05:58:59;98163.19;;;14.21;68.81
23616;BME280;11985;49.404;7.734;2022-07-10T06:01:24;98157.22;;;14.26;68.53
23616;BME280;11985;49.404;7.734;2022-07-10T06:03:51;98161.28;;;14.42;68.44
23616;BME280;11985;49.404;7.734;2022-07-10T06:06:16;98161.69;;;14.52;68.16
23616;BME280;11985;49.404;7.734;2022-07-10T06:08:42;98164.91;;;14.67;67.72
23616;BME280;11985;49.404;7.734;2022-07-10T06:11:08;98159.94;;;14.84;67.48
23616;BME280;11985;49.404;7.734;2022-07-10T06:13:33;98164.22;;;14.85;67.01
23616;BME280;11985;49.404;7.734;2022-07-10T06:15:59;98168.59;;;15.11;66.77
23616;BME280;11985;49.404;7.734;2022-07-10T06:18:24;98176.38;;;15.38;65.97
23616;BME280;11985;49.404;7.734;2022-07-10T06:20:49;98187.34;;;15.48;65.20
23616;BME280;11985;49.404;7.734;2022-07-10T06:23:15;98180.19;;;15.48;64.20
23616;BME280;11985;49.404;7.734;2022-07-10T06:25:40;98183.41;;;15.57;63.67
23616;BME280;11985;49.404;7.734;2022-07-10T06:28:05;98182.34;;;15.71;62.99
23616;BME280;11985;49.404;7.734;2022-07-10T06:30:31;98187.28;;;15.54;62.55
23616;BME280;11985;49.404;7.734;2022-07-10T06:32:56;98181.88;;;15.74;62.23
23616;BME280;11985;49.404;7.734;2022-07-10T06:35:22;98180.66;;;15.77;61.90
23616;BME280;11985;49.404;7.734;2022-07-10T06:37:47;98179.44;;;15.73;61.75
23616;BME280;11985;49.404;7.734;2022-07-10T06:40:13;98182.66;;;15.43;61.61
23616;BME280;11985;49.404;7.734;2022-07-10T06:42:40;98179.31;;;15.29;61.58
23616;BME280;11985;49.404;7.734;2022-07-10T06:45:06;98177.16;;;15.45;61.82
23616;BME280;11985;49.404;7.734;2022-07-10T06:47:31;98177.28;;;15.63;61.31
23616;BME280;11985;49.404;7.734;2022-07-10T06:50:16;98173.97;;;15.68;61.11
23616;BME280;11985;49.404;7.734;2022-07-10T06:52:41;98180.47;;;15.72;60.99
23616;BME280;11985;49.404;7.734;2022-07-10T06:55:08;98181.16;;;15.54;60.60
23616;BME280;11985;49.404;7.734;2022-07-10T06:57:34;98175.91;;;15.47;60.61
23616;BME280;11985;49.404;7.734;2022-07-10T07:00:00;98179.44;;;15.03;60.67
23616;BME280;11985;49.404;7.734;2022-07-10T07:02:26;98181.53;;;14.88;60.66
23616;BME280;11985;49.404;7.734;2022-07-10T07:04:51;98181.19;;;14.77;60.53
23616;BME280;11985;49.404;7.734;2022-07-10T07:07:17;98186.13;;;15.12;60.16
23616;BME280;11985;49.404;7.734;2022-07-10T07:09:42;98182.13;;;15.35;59.63
23616;BME280;11985;49.404;7.734;2022-07-10T07:12:10;98186.88;;;15.57;58.76
23616;BME280;11985;49.404;7.734;2022-07-10T07:14:35;98181.06;;;15.74;58.15
23616;BME280;11985;49.404;7.734;2022-07-10T07:17:01;98189.47;;;15.96;57.49
23616;BME280;11985;49.404;7.734;2022-07-10T07:19:35;98181.06;;;15.99;57.00
23616;BME280;11985;49.404;7.734;2022-07-10T07:22:20;98165.41;;;15.91;57.00
23616;BME280;11985;49.404;7.734;2022-07-10T07:25:05;98172.28;;;15.98;56.83
23616;BME280;11985;49.404;7.734;2022-07-10T07:27:32;98175.91;;;16.04;56.17
23616;BME280;11985;49.404;7.734;2022-07-10T07:30:01;98175.47;;;16.07;55.64
23616;BME280;11985;49.404;7.734;2022-07-10T07:32:27;98181.13;;;16.17;55.39
23616;BME280;11985;49.404;7.734;2022-07-10T07:34:53;98180.97;;;16.30;55.02
23616;BME280;11985;49.404;7.734;2022-07-10T07:37:18;98176.69;;;16.29;55.01
23616;BME280;11985;49.404;7.734;2022-07-10T07:39:44;98178.81;;;16.21;54.91
23616;BME280;11985;49.404;7.734;2022-07-10T07:44:37;98187.34;;;16.48;55.43
23616;BME280;11985;49.404;7.734;2022-07-10T07:47:02;98168.75;;;16.66;54.59
23616;BME280;11985;49.404;7.734;2022-07-10T07:49:28;98191.16;;;16.77;54.54
23616;BME280;11985;49.404;7.734;2022-07-10T07:51:53;98188.09;;;16.92;54.37
23616;BME280;11985;49.404;7.734;2022-07-10T07:54:18;98187.56;;;16.71;53.88
23616;BME280;11985;49.404;7.734;2022-07-10T07:56:44;98189.88;;;16.61;53.82
23616;BME280;11985;49.404;7.734;2022-07-10T07:59:09;98201.38;;;16.36;53.54
23616;BME280;11985;49.404;7.734;2022-07-10T08:01:35;98196.03;;;16.18;53.61
23616;BME280;11985;49.404;7.734;2022-07-10T08:04:01;98187.41;;;15.98;53.72
23616;BME280;11985;49.404;7.734;2022-07-10T08:06:26;98189.81;;;16.06;53.61
23616;BME280;11985;49.404;7.734;2022-07-10T08:08:52;98196.78;;;16.25;53.75
23616;BME280;11985;49.404;7.734;2022-07-10T08:11:17;98197.41;;;16.64;53.27
23616;BME280;11985;49.404;7.734;2022-07-10T08:13:42;98198.50;;;16.93;52.69
23616;BME280;11985;49.404;7.734;2022-07-10T08:16:08;98192.34;;;17.29;52.25
23616;BME280;11985;49.404;7.734;2022-07-10T08:18:33;98197.50;;;17.54;51.66
23616;BME280;11985;49.404;7.734;2022-07-10T08:20:59;98179.09;;;17.53;51.24
23616;BME280;11985;49.404;7.734;2022-07-10T08:23:24;98183.63;;;17.64;51.22
23616;BME280;11985;49.404;7.734;2022-07-10T08:25:49;98173.03;;;17.76;51.02
23616;BME280;11985;49.404;7.734;2022-07-10T08:28:15;98176.97;;;17.85;50.57
23616;BME280;11985;49.404;7.734;2022-07-10T08:30:40;98179.41;;;17.86;50.00
23616;BME280;11985;49.404;7.734;2022-07-10T08:33:07;98187.41;;;17.86;49.64
23616;BME280;11985;49.404;7.734;2022-07-10T08:35:32;98188.00;;;17.88;49.25
23616;BME280;11985;49.404;7.734;2022-07-10T08:37:57;98183.59;;;17.82;48.98
23616;BME280;11985;49.404;7.734;2022-07-10T08:40:23;98177.53;;;17.75;48.90
23616;BME280;11985;49.404;7.734;2022-07-10T08:42:48;98174.19;;;17.80;48.63
23616;BME280;11985;49.404;7.734;2022-07-10T08:45:14;98184.53;;;18.00;48.82
23616;BME280;11985;49.404;7.734;2022-07-10T08:47:39;98175.75;;;18.11;48.69
23616;BME280;11985;49.404;7.734;2022-07-10T08:52:51;98173.75;;;18.18;48.52
23616;BME280;11985;49.404;7.734;2022-07-10T08:55:23;98168.28;;;18.48;48.13
23616;BME280;11985;49.404;7.734;2022-07-10T08:57:50;98170.84;;;18.55;47.93
23616;BME280;11985;49.404;7.734;2022-07-10T09:00:15;98161.88;;;18.72;47.86
23616;BME280;11985;49.404;7.734;2022-07-10T09:02:41;98160.50;;;18.98;47.60
23616;BME280;11985;49.404;7.734;2022-07-10T09:05:07;98159.94;;;18.68;47.22
23616;BME280;11985;49.404;7.734;2022-07-10T09:07:35;98162.69;;;18.73;47.32
23616;BME280;11985;49.404;7.734;2022-07-10T09:10:06;98157.69;;;18.65;46.97
23616;BME280;11985;49.404;7.734;2022-07-10T09:12:49;98160.88;;;18.50;47.14
23616;BME280;11985;49.404;7.734;2022-07-10T09:15:16;98160.50;;;18.58;47.21
23616;BME280;11985;49.404;7.734;2022-07-10T09:17:53;98155.25;;;18.75;47.00
23616;BME280;11985;49.404;7.734;2022-07-10T09:20:45;98163.13;;;18.93;46.73
23616;BME280;11985;49.404;7.734;2022-07-10T09:25:43;98159.28;;;19.18;46.02
23616;BME280;11985;49.404;7.734;2022-07-10T09:28:09;98161.25;;;19.22;45.73
23616;BME280;11985;49.404;7.734;2022-07-10T09:30:36;98162.00;;;19.35;45.56
23616;BME280;11985;49.404;7.734;2022-07-10T09:33:21;98161.28;;;19.39;45.24
23616;BME280;11985;49.404;7.734;2022-07-10T09:41:18;98157.13;;;19.03;44.37
23616;BME280;11985;49.404;7.734;2022-07-10T09:43:48;98158.91;;;18.97;44.42
23616;BME280;11985;49.404;7.734;2022-07-10T09:46:15;98153.09;;;19.01;44.36
23616;BME280;11985;49.404;7.734;2022-07-10T09:48:40;98148.75;;;18.83;44.29
23616;BME280;11985;49.404;7.734;2022-07-10T09:51:07;98150.13;;;18.85;44.26
23616;BME280;11985;49.404;7.734;2022-07-10T09:53:40;98147.00;;;19.17;44.38
23616;BME280;11985;49.404;7.734;2022-07-10T09:56:08;98146.53;;;19.37;44.06
23616;BME280;11985;49.404;7.734;2022-07-10T09:58:34;98142.06;;;19.71;43.68
23616;BME280;11985;49.404;7.734;2022-07-10T10:01:07;98144.41;;;19.84;43.60
23616;BME280;11985;49.404;7.734;2022-07-10T10:03:39;98143.50;;;20.12;43.38
23616;BME280;11985;49.404;7.734;2022-07-10T10:06:10;98138.84;;;20.24;42.76
23616;BME280;11985;49.404;7.734;2022-07-10T10:11:08;98123.06;;;20.23;42.39
23616;BME280;11985;49.404;7.734;2022-07-10T10:13:38;98131.78;;;20.35;42.46
23616;BME280;11985;49.404;7.734;2022-07-10T10:16:06;98130.81;;;19.86;42.27
23616;BME280;11985;49.404;7.734;2022-07-10T10:18:34;98121.66;;;19.65;42.11
23616;BME280;11985;49.404;7.734;2022-07-10T10:20:59;98129.09;;;19.63;42.38
23616;BME280;11985;49.404;7.734;2022-07-10T10:23:26;98120.69;;;19.71;42.29
23616;BME280;11985;49.404;7.734;2022-07-10T10:25:54;98121.63;;;19.98;42.17
23616;BME280;11985;49.404;7.734;2022-07-10T10:28:22;98118.38;;;20.13;42.10
23616;BME280;11985;49.404;7.734;2022-07-10T10:30:58;98121.44;;;20.22;41.91
23616;BME280;11985;49.404;7.734;2022-07-10T10:35:55;98115.06;;;20.45;41.51
23616;BME280;11985;49.404;7.734;2022-07-10T10:38:21;98123.88;;;20.45;41.49
23616;BME280;11985;49.404;7.734;2022-07-10T10:40:47;98108.47;;;20.14;41.11
23616;BME280;11985;49.404;7.734;2022-07-10T10:43:22;98131.22;;;19.61;41.51
23616;BME280;11985;49.404;7.734;2022-07-10T10:45:49;98118.91;;;19.60;41.51
23616;BME280;11985;49.404;7.734;2022-07-10T10:48:18;98118.97;;;19.65;41.45
23616;BME280;11985;49.404;7.734;2022-07-10T10:53:22;98111.75;;;20.16;41.57
23616;BME280;11985;49.404;7.734;2022-07-10T10:58:42;98108.06;;;20.22;40.96
23616;BME280;11985;49.404;7.734;2022-07-10T11:06:51;98107.56;;;20.25;41.29
23616;BME280;11985;49.404;7.734;2022-07-10T11:09:27;98091.13;;;20.55;41.02
23616;BME280;11985;49.404;7.734;2022-07-10T11:12:00;98105.00;;;20.52;41.04
23616;BME280;11985;49.404;7.734;2022-07-10T11:14:27;98109.69;;;20.62;40.77
23616;BME280;11985;49.404;7.734;2022-07-10T11:16:54;98105.09;;;20.40;40.63
23616;BME280;11985;49.404;7.734;2022-07-10T11:19:22;98102.72;;;20.22;40.67
23616;BME280;11985;49.404;7.734;2022-07-10T11:21:58;98095.25;;;20.24;40.62
23616;BME280;11985;49.404;7.734;2022-07-10T11:27:09;98100.38;;;20.47;40.59
23616;BME280;11985;49.404;7.734;2022-07-10T11:29:40;98101.19;;;20.70;40.57
23616;BME280;11985;49.404;7.734;2022-07-10T11:32:06;98106.41;;;20.60;40.74
23616;BME280;11985;49.404;7.734;2022-07-10T11:34:36;98102.25;;;20.69;40.43
23616;BME280;11985;49.404;7.734;2022-07-10T11:37:03;98100.69;;;20.73;40.58
23616;BME280;11985;49.404;7.734;2022-07-10T11:39:28;98099.19;;;20.82;40.67
23616;BME280;11985;49.404;7.734;2022-07-10T11:41:54;98103.75;;;21.08;40.69
23616;BME280;11985;49.404;7.734;2022-07-10T11:44:19;98098.38;;;21.08;40.60
23616;BME280;11985;49.404;7.734;2022-07-10T11:46:46;98097.19;;;20.94;40.09
23616;BME280;11985;49.404;7.734;2022-07-10T11:49:15;98091.53;;;20.91;40.22
23616;BME280;11985;49.404;7.734;2022-07-10T11:51:42;98089.22;;;20.99;40.16
23616;BME280;11985;49.404;7.734;2022-07-10T11:54:14;98094.63;;;21.04;40.59
23616;BME280;11985;49.404;7.734;2022-07-10T11:56:51;98088.81;;;21.40;40.27
23616;BME280;11985;49.404;7.734;2022-07-10T11:59:27;98078.41;;;21.43;40.43
23616;BME280;11985;49.404;7.734;2022-07-10T12:01:54;98080.13;;;21.65;40.43
23616;BME280;11985;49.404;7.734;2022-07-10T12:04:22;98080.66;;;21.61;39.97
23616;BME280;11985;49.404;7.734;2022-07-10T12:06:49;98088.38;;;21.90;40.03
23616;BME280;11985;49.404;7.734;2022-07-10T12:09:18;98093.16;;;22.25;39.71
23616;BME280;11985;49.404;7.734;2022-07-10T12:14:23;98084.31;;;22.25;39.19
23616;BME280;11985;49.404;7.734;2022-07-10T12:16:53;98077.28;;;22.19;39.29
23616;BME280;11985;49.404;7.734;2022-07-10T12:19:22;98076.09;;;21.99;39.12
23616;BME280;11985;49.404;7.734;2022-07-10T12:21:48;98075.16;;;21.78;39.64
23616;BME280;11985;49.404;7.734;2022-07-10T12:24:16;98075.44;;;21.45;39.59
23616;BME280;11985;49.404;7.734;2022-07-10T12:26:43;98074.75;;;21.59;39.59
23616;BME280;11985;49.404;7.734;2022-07-10T12:31:42;98082.84;;;22.07;39.83
23616;BME280;11985;49.404;7.734;2022-07-10T12:34:09;98071.44;;;22.27;39.43
23616;BME280;11985;49.404;7.734;2022-07-10T12:36:48;98075.31;;;22.56;39.26
23616;BME280;11985;49.404;7.734;2022-07-10T12:39:17;98073.47;;;22.62;39.12
23616;BME280;11985;49.404;7.734;2022-07-10T12:41:56;98072.28;;;22.37;38.75
23616;BME280;11985;49.404;7.734;2022-07-10T12:44:44;98068.19;;;22.25;38.62
23616;BME280;11985;49.404;7.734;2022-07-10T12:47:18;98060.75;;;22.42;38.78
23616;BME280;11985;49.404;7.734;2022-07-10T12:50:02;98060.09;;;22.82;38.67
23616;BME280;11985;49.404;7.734;2022-07-10T12:52:36;98080.50;;;22.83;38.44
23616;BME280;11985;49.404;7.734;2022-07-10T12:57:32;98071.06;;;22.71;38.26
23616;BME280;11985;49.404;7.734;2022-07-10T13:00:04;98063.00;;;22.76;38.47
23616;BME280;11985;49.404;7.734;2022-07-10T13:02:33;98073.78;;;22.81;38.57
23616;BME280;11985;49.404;7.734;2022-07-10T13:04:58;98069.53;;;22.90;38.35
23616;BME280;11985;49.404;7.734;2022-07-10T13:07:34;98056.63;;;22.92;38.03
23616;BME280;11985;49.404;7.734;2022-07-10T13:10:09;98067.59;;;22.85;38.09
23616;BME280;11985;49.404;7.734;2022-07-10T13:12:35;98076.41;;;22.71;38.08
23616;BME280;11985;49.404;7.734;2022-07-10T13:15:01;98070.03;;;22.87;38.20
23616;BME280;11985;49.404;7.734;2022-07-10T13:17:28;98073.31;;;22.99;37.97
23616;BME280;11985;49.404;7.734;2022-07-10T13:19:53;98070.88;;;23.03;38.03
23616;BME280;11985;49.404;7.734;2022-07-10T13:22:18;98071.09;;;22.81;37.87
23616;BME280;11985;49.404;7.734;2022-07-10T13:24:44;98072.88;;;22.50;38.15
23616;BME280;11985;49.404;7.734;2022-07-10T13:27:09;98079.31;;;22.01;38.50
23616;BME280;11985;49.404;7.734;2022-07-10T13:29:35;98078.19;;;22.34;38.63
23616;BME280;11985;49.404;7.734;2022-07-10T13:32:00;98074.00;;;22.64;38.84
23616;BME280;11985;49.404;7.734;2022-07-10T13:34:26;98078.59;;;22.74;38.37
23616;BME280;11985;49.404;7.734;2022-07-10T13:36:51;98079.66;;;22.73;38.70
23616;BME280;11985;49.404;7.734;2022-07-10T13:39:19;98079.09;;;22.71;38.75